Latest Weather Observations for Badgerys Creek

IDN60801

Issued at 2:04 pm EDT Sunday 21 December 2014 (issued every 30 minutes, with the page automatically refreshed every 10 minutes)

About weather observations | Map of weather stations | Latest weather observations for NSW | Other Formats
Station Details ID: 067108 Name: BADGERYS CREEK AWS Lat: -33.90 Lon: 150.73 Height: 81.2 m
Data from the previous 72 hours. | See also: Recent months at Badgerys Creek
Date/Time
EDT
Temp
°C
App
Temp
°C
Dew
Point
Rel
Hum
%
Delta-T
°C
Wind Press
QNH
hPa
Press
MSL
hPa
Rain
since 9 am
mm
Dir
 
Spd
km/h
Gust
km/h
Spd
kts
Gust
kts
21/02:00pm 27.8 26.5 14.8 45 7.9 NE 15 22 8 12 1015.6 1015.3 0.0
21/01:30pm 27.8 26.2 15.1 46 7.7 NNE 17 24 9 13 1016.3 1016.0 0.0
21/01:00pm 26.5 26.5 15.2 49 6.9 NNE 9 17 5 9 1017.1 1016.8 0.0
21/12:30pm 26.4 26.1 15.4 50 6.7 NE 11 19 6 10 1017.5 1017.1 0.0
21/12:00pm 25.7 25.7 15.1 52 6.4 NE 9 19 5 10 1018.0 1017.7 0.0
21/11:30am 25.0 23.4 15.0 53 6.0 N 17 24 9 13 1018.1 1017.8 0.0
21/11:00am 24.6 23.1 15.2 55 5.7 N 17 32 9 17 1017.9 1017.5 0.0
21/10:30am 23.1 21.7 14.4 58 5.1 NNE 15 20 8 11 1018.3 1018.0 0.0
21/10:00am 23.4 22.7 15.5 61 4.8 NNE 13 20 7 11 1018.4 1018.1 0.0
21/09:30am 21.8 22.1 14.9 65 4.1 NNE 7 13 4 7 1018.8 1018.5 0.0
21/09:00am 20.8 21.4 14.2 66 3.8 NNW 4 9 2 5 1019.0 1018.7 0.0
21/08:30am 19.7 20.4 13.4 67 3.6 SW 2 6 1 3 1018.9 1018.6 0.0
21/08:00am 17.9 18.3 13.8 77 2.3 WSW 4 6 2 3 1018.9 1018.6 0.0
21/07:30am 16.8 16.8 13.7 82 1.8 SW 6 9 3 5 1018.6 1018.3 0.0
21/07:00am 15.6 15.3 13.3 86 1.3 WSW 7 9 4 5 1018.4 1018.1 0.0
21/06:30am 14.1 13.9 13.1 94 0.6 SW 6 7 3 4 1018.1 1017.8 0.0
21/06:00am 13.5 13.2 12.6 94 0.5 SW 6 7 3 4 1017.9 1017.5 0.0
21/05:30am 13.7 13.4 12.8 94 0.5 WSW 6 7 3 4 1017.9 1017.5 0.0
21/05:00am 13.6 13.2 12.5 93 0.6 WSW 6 6 3 3 1017.7 1017.3 0.0
21/04:30am 13.8 13.6 12.9 94 0.5 WSW 6 7 3 4 1017.6 1017.2 0.0
21/04:00am 13.8 13.4 12.5 92 0.7 WSW 6 7 3 4 1017.6 1017.2 0.0
21/03:30am 14.3 14.2 13.2 93 0.6 SW 6 6 3 3 1017.5 1017.1 0.0
21/03:00am 14.4 14.2 13.0 91 0.8 WSW 6 7 3 4 1017.7 1017.3 0.0
21/02:30am 14.8 14.7 13.2 90 0.9 SW 6 7 3 4 1017.8 1017.4 0.0
21/02:00am 14.8 14.7 13.2 90 0.9 SW 6 6 3 3 1018.1 1017.8 0.0
21/01:30am 15.0 14.9 13.2 89 1.0 SW 6 6 3 3 1018.3 1018.0 0.0
21/01:00am 15.1 15.4 13.3 89 1.0 SSW 4 6 2 3 1018.6 1018.3 0.0
21/12:30am 15.7 16.7 13.2 85 1.4 CALM 0 0 0 0 1018.8 1018.5 0.0
21/12:00am 15.8 16.2 12.5 81 1.8 ENE 2 4 1 2 1019.1 1018.8 0.0
 
Date/Time
EDT
Temp
°C
App
Temp
°C
Dew
Point
Rel
Hum
%
Delta-T
°C
Wind Press
QNH
hPa
Press
MSL
hPa
Rain
since 9 am
mm
Dir
 
Spd
km/h
Gust
km/h
Spd
kts
Gust
kts
20/11:30pm 17.0 17.0 12.3 74 2.6 ENE 4 6 2 3 1019.2 1018.9 0.0
20/11:00pm 17.8 17.6 12.9 73 2.7 ENE 6 7 3 4 1019.2 1018.9 0.0
20/10:30pm 18.1 17.8 12.8 71 3.0 ENE 6 7 3 4 1019.0 1018.7 0.0
20/10:00pm 18.5 18.2 12.7 69 3.2 ENE 6 9 3 5 1018.8 1018.5 0.0
20/09:30pm 19.0 18.5 12.7 67 3.5 E 7 9 4 5 1018.5 1018.2 0.0
20/09:00pm 19.3 18.9 12.3 64 3.9 E 6 7 3 4 1018.1 1017.8 0.0
20/08:30pm 20.1 19.1 12.3 61 4.4 E 9 13 5 7 1017.6 1017.2 0.0
20/08:00pm 20.9 19.9 12.3 58 4.8 E 9 13 5 7 1016.9 1016.6 0.0
20/07:30pm 21.8 20.1 12.4 55 5.3 ENE 13 17 7 9 1016.6 1016.3 0.0
20/07:00pm 22.4 19.9 12.4 53 5.7 E 17 24 9 13 1016.3 1016.0 0.0
20/06:30pm 22.9 20.0 12.2 51 6.1 ENE 19 26 10 14 1015.7 1015.4 0.0
20/06:00pm 23.9 21.2 12.8 49 6.4 ENE 19 28 10 15 1015.2 1014.9 0.0
20/05:30pm 24.4 21.5 12.4 47 6.9 E 19 24 10 13 1014.8 1014.5 0.0
20/05:00pm 25.0 22.1 12.9 47 7.0 ENE 20 30 11 16 1014.9 1014.6 0.0
20/04:30pm 25.5 23.2 13.0 46 7.3 ENE 17 24 9 13 1014.9 1014.6 0.0
20/04:00pm 25.5 22.6 12.4 44 7.6 ENE 19 30 10 16 1015.1 1014.8 0.0
20/03:30pm 26.2 23.8 12.6 43 7.9 E 17 32 9 17 1015.0 1014.7 0.0
20/03:00pm 25.8 24.4 9.6 36 8.9 E 7 15 4 8 1015.5 1015.2 0.0
20/02:30pm 25.3 24.3 10.4 39 8.3 ESE 6 11 3 6 1015.7 1015.4 0.0
20/02:00pm 25.1 24.1 10.2 39 8.3 NE 6 11 3 6 1015.9 1015.6 0.0
20/01:30pm 24.7 23.6 10.6 41 7.9 NNE 7 13 4 7 1016.5 1016.2 0.0
20/01:00pm 23.9 22.3 10.2 42 7.6 N 9 20 5 11 1016.9 1016.6 0.0
20/12:30pm 23.5 21.9 10.2 43 7.3 ENE 9 19 5 10 1017.5 1017.1 0.0
20/12:00pm 22.1 20.5 10.3 47 6.5 N 9 19 5 10 1017.8 1017.4 0.0
20/11:30am 22.0 20.7 11.4 51 5.9 NW 9 24 5 13 1018.0 1017.7 0.0
20/11:00am 21.6 20.2 11.0 51 5.9 NNE 9 28 5 15 1018.2 1017.9 0.0
20/10:30am 21.8 21.2 11.8 53 5.6 NE 6 11 3 6 1018.4 1018.1 0.0
20/10:00am 20.6 19.7 11.2 55 5.2 NNE 7 13 4 7 1018.5 1018.2 0.0
20/09:30am 19.8 19.0 11.0 57 4.8 N 6 9 3 5 1018.7 1018.4 0.0
20/09:00am 20.1 19.4 11.3 57 4.8 ENE 6 9 3 5 1018.7 1018.4 0.0
20/08:30am 18.9 18.7 11.7 63 4.0 ENE 4 7 2 4 1018.8 1018.5 0.0
20/08:00am 18.8 18.8 12.3 66 3.6 ESE 4 6 2 3 1018.6 1018.3 0.0
20/07:30am 17.4 17.3 12.1 71 2.9 SSE 4 6 2 3 1018.4 1018.1 0.0
20/07:00am 16.6 17.0 12.6 77 2.2 SSE 2 4 1 2 1018.1 1017.8 0.0
20/06:30am 16.1 16.5 12.5 79 2.0 SSE 2 4 1 2 1018.0 1017.7 0.0
20/06:00am 15.7 15.8 12.6 82 1.7 SSE 4 6 2 3 1017.7 1017.3 0.0
20/05:30am 16.1 16.1 12.3 78 2.1 SSE 4 4 2 2 1017.7 1017.3 0.0
20/05:00am 16.3 16.1 11.9 75 2.4 SSE 4 6 2 3 1017.5 1017.1 0.0
20/04:30am 16.6 16.4 11.7 73 2.7 SSE 4 7 2 4 1017.3 1017.0 0.0
20/04:00am 16.8 17.0 11.9 73 2.7 SSE 2 4 1 2 1017.2 1016.9 0.0
20/03:30am 17.0 16.8 11.9 72 2.8 SE 4 7 2 4 1017.2 1016.9 0.0
20/03:00am 17.1 16.9 11.8 71 2.9 SE 4 6 2 3 1017.5 1017.1 0.0
20/02:30am 17.2 17.7 11.7 70 3.0 CALM 0 0 0 0 1017.6 1017.2 0.0
20/02:00am 17.2 17.7 11.5 69 3.1 CALM 0 0 0 0 1017.9 1017.5 0.0
20/01:30am 17.5 18.0 11.5 68 3.3 CALM 0 0 0 0 1018.1 1017.8 0.0
20/01:00am 17.6 17.8 10.7 64 3.7 CALM 0 0 0 0 1018.5 1018.2 0.0
20/12:30am 17.6 17.5 10.7 64 3.7 ESE 2 4 1 2 1018.8 1018.5 0.0
20/12:00am 17.9 17.0 10.8 63 3.8 ESE 6 7 3 4 1019.0 1018.7 0.0
 
Date/Time
EDT
Temp
°C
App
Temp
°C
Dew
Point
Rel
Hum
%
Delta-T
°C
Wind Press
QNH
hPa
Press
MSL
hPa
Rain
since 9 am
mm
Dir
 
Spd
km/h
Gust
km/h
Spd
kts
Gust
kts
19/11:30pm 18.0 17.1 10.6 62 4.0 ESE 6 9 3 5 1019.2 1018.9 0.0
19/11:00pm 18.1 17.7 11.0 63 3.8 ESE 4 6 2 3 1019.2 1018.9 0.0
19/10:30pm 18.1 17.2 10.7 62 4.0 ESE 6 7 3 4 1018.9 1018.6 0.0
19/10:00pm 18.1 17.5 10.5 61 4.1 ESE 4 7 2 4 1018.6 1018.3 0.0
19/09:30pm 18.2 17.6 10.3 60 4.2 SE 4 7 2 4 1018.3 1018.0 0.0
19/09:00pm 18.3 16.6 9.9 58 4.5 ESE 9 15 5 8 1018.0 1017.7 0.0
19/08:30pm 18.4 15.8 9.5 56 4.7 ESE 13 20 7 11 1017.7 1017.3 0.0
19/08:00pm 18.5 16.0 9.6 56 4.7 SE 13 22 7 12 1017.0 1016.7 0.0
19/07:30pm 18.7 15.5 10.0 57 4.7 SE 17 22 9 12 1016.3 1016.0 0.0
19/07:00pm 19.1 16.0 10.4 57 4.7 ESE 17 26 9 14 1015.5 1015.2 0.0
19/06:30pm 19.5 16.0 10.2 55 5.0 ESE 19 30 10 16 1014.7 1014.4 0.0
19/06:00pm 20.8 18.6 10.9 53 5.4 ESE 13 20 7 11 1014.0 1013.7 0.0
19/05:30pm 22.0 19.0 10.8 49 6.2 ESE 17 24 9 13 1013.4 1013.1 0.0
19/05:00pm 21.6 18.1 10.1 48 6.3 ESE 19 28 10 15 1013.0 1012.7 0.0
19/04:30pm 22.1 18.6 10.3 47 6.5 ESE 19 28 10 15 1012.8 1012.5 0.0
19/04:00pm 21.5 18.4 10.3 49 6.1 ESE 17 26 9 14 1012.6 1012.3 0.0
19/03:30pm 22.7 19.9 11.4 49 6.3 ESE 17 33 9 18 1012.6 1012.3 0.0
19/03:00pm 23.6 21.3 11.6 47 6.8 ESE 15 26 8 14 1012.4 1012.1 0.0
19/02:30pm 22.4 19.0 11.2 49 6.2 E 20 32 11 17 1012.5 1012.2 0.0
19/02:00pm 22.4 19.1 10.9 48 6.4 E 19 28 10 15 1012.5 1012.2 0.0
19/01:30pm 23.4 20.4 11.8 48 6.6 E 19 28 10 15 1012.5 1012.2 0.0
19/01:00pm 23.9 21.1 12.5 49 6.6 ESE 19 30 10 16 1012.6 1012.3 0.0
19/12:30pm 22.8 20.1 11.8 50 6.2 E 17 24 9 13 1012.6 1012.3 0.0
19/12:00pm 22.8 20.8 11.5 49 6.3 ENE 13 24 7 13 1012.7 1012.4 0.0
19/11:30am 22.4 20.9 11.8 51 6.0 E 11 19 6 10 1012.8 1012.5 0.0
19/11:00am 22.9 22.4 12.5 52 5.9 ESE 7 17 4 9 1012.7 1012.4 0.0
19/10:30am 22.3 21.7 11.7 51 6.0 ESE 6 13 3 7 1012.9 1012.6 0.0
19/10:00am 22.3 21.8 12.5 53 5.6 E 7 15 4 8 1012.7 1012.4 0.0
19/09:30am 21.1 21.1 12.5 58 4.9 SSW 4 7 2 4 1012.9 1012.6 0.0
19/09:00am 20.1 19.7 12.3 61 4.4 SSE 6 11 3 6 1012.8 1012.5 0.0
19/08:30am 19.6 18.6 12.4 63 4.0 SSE 9 15 5 8 1012.7 1012.4 0.0
19/08:00am 18.5 16.8 12.3 67 3.5 SSW 13 19 7 10 1012.6 1012.3 0.0
19/07:30am 18.0 16.8 12.9 72 2.9 S 11 17 6 9 1012.1 1011.8 0.0
19/07:00am 17.4 16.9 13.7 79 2.1 SSW 9 15 5 8 1011.7 1011.4 0.0
19/06:30am 16.9 16.5 14.0 83 1.7 S 9 15 5 8 1011.2 1010.9 0.0
19/06:00am 16.6 15.8 13.9 84 1.5 SSE 11 19 6 10 1010.5 1010.2 0.0
19/05:30am 17.0 16.5 13.7 81 1.9 SSE 9 15 5 8 1009.8 1009.5 0.0
19/05:00am 17.6 15.6 12.7 73 2.7 S 15 22 8 12 1009.1 1008.8 0.0
19/04:30am 17.8 15.3 12.3 70 3.1 WSW 17 19 9 10 1008.3 1008.0 0.0
19/04:00am 18.2 15.9 13.1 72 2.9 WSW 17 20 9 11 1007.9 1007.6 0.0
19/03:30am 17.9 16.6 15.9 88 1.2 WSW 17 20 9 11 1007.7 1007.4 0.0
19/03:00am 17.9 17.6 17.4 97 0.3 WSW 15 15 8 8 1007.5 1007.2 0.0
19/02:30am 18.4 18.8 18.2 99 0.1 WSW 13 15 7 8 1007.1 1006.7 0.0
19/02:00am 18.2 19.3 18.0 99 0.1 WSW 9 15 5 8 1006.7 1006.3 0.0
19/01:30am 18.2 19.6 17.7 97 0.3 SW 7 11 4 6 1006.8 1006.4 0.0
19/01:00am 18.8 20.5 18.5 98 0.2 W 7 9 4 5 1006.7 1006.3 0.0
19/12:30am 18.2 19.6 17.4 95 0.5 ENE 6 7 3 4 1006.9 1006.5 0.0
19/12:00am 19.7 22.6 19.0 96 0.4 ENE 2 6 1 3 1006.7 1006.3 0.0
 
Date/Time
EDT
Temp
°C
App
Temp
°C
Dew
Point
Rel
Hum
%
Delta-T
°C
Wind Press
QNH
hPa
Press
MSL
hPa
Rain
since 9 am
mm
Dir
 
Spd
km/h
Gust
km/h
Spd
kts
Gust
kts
18/11:30pm 19.7 22.8 18.7 94 0.6 CALM 0 0 0 0 1006.8 1006.4 0.0
18/11:00pm 20.3 23.0 18.6 90 1.1 ENE 2 2 1 1 1006.8 1006.4 0.0
18/10:30pm 20.7 23.9 18.8 89 1.2 CALM 0 2 0 1 1006.8 1006.4 0.0
18/10:00pm 20.7 22.6 18.6 88 1.3 ENE 6 6 3 3 1006.8 1006.4 0.0
18/09:30pm 21.7 24.4 18.7 83 1.9 ENE 2 4 1 2 1006.3 1005.9 0.0
18/09:00pm 22.7 25.5 18.9 79 2.4 ENE 2 4 1 2 1006.0 1005.6 0.0
18/08:30pm 23.7 25.7 19.2 76 2.9 ENE 7 11 4 6 1005.7 1005.3 0.0
18/08:00pm 24.6 25.9 19.2 72 3.5 ENE 11 15 6 8 1005.5 1005.1 0.0
18/07:30pm 25.6 26.8 19.0 67 4.2 ENE 11 17 6 9 1005.0 1004.6 0.0
18/07:00pm 26.6 27.6 18.7 62 5.1 ENE 11 19 6 10 1004.4 1004.1 0.0
18/06:30pm 27.4 28.7 18.4 58 5.8 E 9 15 5 8 1004.0 1003.7 0.0
18/06:00pm 27.6 28.7 18.0 55 6.1 ESE 9 15 5 8 1003.6 1003.3 0.0
18/05:30pm 27.8 28.7 17.6 53 6.5 ESE 9 13 5 7 1003.5 1003.2 0.0
18/05:00pm 27.1 28.4 17.6 56 6.0 E 7 13 4 7 1003.6 1003.3 0.0
18/04:30pm 27.2 28.4 17.4 55 6.2 NNE 7 13 4 7 1003.9 1003.6 0.0
18/04:00pm 26.7 27.3 16.9 55 6.1 NE 9 19 5 10 1004.2 1003.9 0.0
18/03:30pm 27.4 28.3 17.6 55 6.2 NE 9 17 5 9 1004.8 1004.4 0.0
18/03:00pm 26.4 27.0 16.9 56 5.9 N 9 15 5 8 1005.3 1004.9 0.0
18/02:30pm 25.6 25.4 16.7 58 5.5 NE 13 20 7 11 1005.6 1005.2 0.0

Other Formats:

Comma delimited format used in spreadsheet applications
http://www.bom.gov.au/fwo/IDN60801/IDN60801.94752.axf

JavaScript Object Notation format (JSON) in row-major order
http://www.bom.gov.au/fwo/IDN60801/IDN60801.94752.json